createdAt,value
2022-08-10T00:00:26.691Z,3.00
2022-08-10T00:01:26.761Z,3.20
2022-08-10T00:02:26.754Z,3.20
2022-08-10T00:03:26.646Z,3.20
2022-08-10T00:04:26.627Z,3.20
2022-08-10T00:05:26.613Z,3.10
2022-08-10T00:06:26.594Z,3.00
2022-08-10T00:07:26.620Z,3.30
2022-08-10T00:08:26.564Z,2.90
2022-08-10T00:09:26.550Z,3.20
2022-08-10T00:10:26.529Z,2.80
2022-08-10T00:11:26.514Z,3.10
2022-08-10T00:12:53.892Z,3.20
2022-08-10T00:13:26.517Z,3.10
2022-08-10T00:14:26.465Z,3.20
2022-08-10T00:15:52.965Z,3.20
2022-08-10T00:16:26.430Z,3.20
2022-08-10T00:17:26.413Z,3.30
2022-08-10T00:18:34.602Z,3.20
2022-08-10T00:19:26.381Z,3.00
2022-08-10T00:20:26.363Z,3.10
2022-08-10T00:21:27.155Z,3.20
2022-08-10T00:22:26.332Z,3.60
2022-08-10T00:23:26.314Z,3.30
2022-08-10T00:24:26.297Z,3.00
2022-08-10T00:25:26.278Z,3.20
2022-08-10T00:26:26.267Z,3.30
2022-08-10T00:27:52.007Z,3.20
2022-08-10T00:28:26.233Z,3.40
2022-08-10T00:29:26.217Z,3.30
2022-08-10T00:30:26.202Z,3.00
2022-08-10T00:31:26.180Z,3.50
2022-08-10T00:32:26.264Z,3.20
2022-08-10T00:33:26.148Z,3.50
2022-08-10T00:34:26.135Z,3.60
2022-08-10T00:35:26.115Z,3.20
2022-08-10T00:36:26.098Z,3.40
2022-08-10T00:37:26.082Z,3.30
2022-08-10T00:38:26.066Z,3.30
2022-08-10T00:39:26.229Z,3.20
2022-08-10T00:40:37.275Z,3.10
2022-08-10T00:41:26.015Z,3.20
2022-08-10T00:42:26.010Z,3.10
2022-08-10T00:43:25.985Z,3.30
2022-08-10T00:44:25.969Z,3.10
2022-08-10T00:45:25.949Z,3.40
2022-08-10T00:46:25.934Z,3.60
2022-08-10T00:47:36.879Z,3.50
2022-08-10T00:48:25.899Z,3.40
2022-08-10T00:49:25.883Z,3.30
2022-08-10T00:50:25.867Z,3.50
2022-08-10T00:51:47.998Z,3.60
2022-08-10T00:52:25.837Z,3.50
2022-08-10T00:53:26.252Z,3.60
2022-08-10T00:54:25.801Z,3.40
2022-08-10T00:55:25.780Z,3.50
2022-08-10T00:57:02.079Z,3.60
2022-08-10T00:57:25.750Z,3.60
2022-08-10T00:58:25.732Z,3.30
2022-08-10T00:59:25.712Z,3.60
2022-08-10T01:00:25.698Z,3.40
2022-08-10T01:02:09.376Z,3.50
2022-08-10T01:02:25.780Z,3.40
2022-08-10T01:04:54.577Z,3.70
2022-08-10T01:04:57.694Z,3.80
2022-08-10T01:05:25.612Z,3.80
2022-08-10T01:06:25.597Z,3.80
2022-08-10T01:07:25.578Z,3.50
2022-08-10T01:08:25.565Z,3.60
2022-08-10T01:09:25.547Z,3.40
2022-08-10T01:10:25.556Z,3.30
2022-08-10T01:12:34.236Z,3.50
2022-08-10T01:12:38.516Z,3.90
2022-08-10T01:13:25.477Z,3.50
2022-08-10T01:14:25.463Z,3.80
2022-08-10T01:15:25.444Z,4.00
2022-08-10T01:16:25.429Z,3.40
2022-08-10T01:17:25.410Z,4.00
2022-08-10T01:18:25.395Z,4.00
2022-08-10T01:19:25.377Z,3.90
2022-08-10T01:20:27.259Z,3.60
2022-08-10T01:21:25.340Z,3.70
2022-08-10T01:22:25.327Z,4.00
2022-08-10T01:23:25.308Z,3.80
2022-08-10T01:24:25.411Z,4.30
2022-08-10T01:25:25.274Z,3.90
2022-08-10T01:26:31.337Z,4.00
2022-08-10T01:27:27.187Z,3.90
2022-08-10T01:28:25.231Z,3.80
2022-08-10T01:29:25.221Z,3.70
2022-08-10T01:30:25.193Z,3.80
2022-08-10T01:31:25.173Z,4.20
2022-08-10T01:32:25.159Z,4.00
2022-08-10T01:33:31.927Z,3.80
2022-08-10T01:34:25.128Z,4.00
2022-08-10T01:35:25.104Z,4.10
2022-08-10T01:36:32.522Z,4.20
2022-08-10T01:37:25.074Z,4.00
2022-08-10T01:38:25.058Z,4.10
2022-08-10T01:39:25.143Z,4.10
2022-08-10T01:40:25.035Z,4.40
2022-08-10T01:41:25.001Z,4.10
2022-08-10T01:42:24.986Z,4.20
2022-08-10T01:43:24.970Z,4.10
2022-08-10T01:44:24.953Z,4.00
2022-08-10T01:45:24.937Z,4.20
2022-08-10T01:46:24.922Z,3.90
2022-08-10T01:47:24.902Z,4.70
2022-08-10T01:48:24.885Z,4.40
2022-08-10T01:49:24.874Z,4.50
2022-08-10T01:50:24.850Z,4.50
2022-08-10T01:51:24.837Z,4.00
2022-08-10T01:52:24.818Z,3.90
2022-08-10T01:53:24.799Z,4.40
2022-08-10T01:54:24.988Z,4.10
2022-08-10T01:55:24.765Z,3.80
2022-08-10T01:56:24.746Z,4.30
2022-08-10T01:57:24.730Z,4.20
2022-08-10T01:58:24.716Z,4.70
2022-08-10T01:59:24.697Z,4.30
2022-08-10T02:00:24.681Z,4.20
2022-08-10T02:01:24.706Z,4.50
2022-08-10T02:02:24.647Z,4.30
2022-08-10T02:03:24.625Z,4.10
2022-08-10T02:04:24.612Z,4.70
2022-08-10T02:05:24.594Z,4.10
2022-08-10T02:06:24.579Z,4.80
2022-08-10T02:07:24.564Z,4.50
2022-08-10T02:08:24.541Z,4.70
2022-08-10T02:09:24.527Z,4.60
2022-08-10T02:10:24.509Z,4.30
2022-08-10T02:11:24.493Z,4.40
2022-08-10T02:12:24.502Z,5.20
2022-08-10T02:13:24.457Z,4.40
2022-08-10T02:14:24.472Z,4.60
2022-08-10T02:15:24.454Z,5.10
2022-08-10T02:16:24.405Z,4.60
2022-08-10T02:17:59.322Z,5.00
2022-08-10T02:18:24.404Z,4.40
2022-08-10T02:19:24.356Z,4.40
2022-08-10T02:20:24.338Z,5.20
2022-08-10T02:21:24.347Z,4.40
2022-08-10T02:22:46.049Z,4.50
2022-08-10T02:23:24.285Z,5.10
2022-08-10T02:24:24.266Z,4.50
2022-08-10T02:25:39.666Z,4.20
2022-08-10T02:26:24.238Z,4.70
2022-08-10T02:27:24.216Z,5.00
2022-08-10T02:28:27.481Z,4.90
2022-08-10T02:29:24.179Z,5.10
2022-08-10T02:30:24.163Z,4.40
2022-08-10T02:31:24.157Z,4.60
2022-08-10T02:32:36.624Z,4.50
2022-08-10T02:33:24.109Z,4.80
2022-08-10T02:34:24.123Z,4.80
2022-08-10T02:35:24.104Z,4.40
2022-08-10T02:36:24.292Z,4.90
2022-08-10T02:37:24.041Z,5.00
2022-08-10T02:38:59.559Z,4.80
2022-08-10T02:39:24.027Z,5.00
2022-08-10T02:45:01.644Z,4.80
2022-08-10T02:45:15.847Z,4.80
2022-08-10T02:45:17.699Z,4.80
2022-08-10T02:45:23.046Z,4.80
2022-08-10T02:45:26.598Z,4.40
2022-08-10T02:45:31.026Z,4.70
2022-08-10T02:46:23.919Z,5.10
2022-08-10T02:47:23.895Z,5.10
2022-08-10T02:49:23.834Z,5.00
2022-08-10T02:50:23.845Z,4.60
2022-08-10T02:52:06.996Z,5.10
2022-08-10T02:52:23.782Z,4.70
2022-08-10T02:53:54.437Z,4.50
2022-08-10T02:54:23.747Z,4.70
2022-08-10T02:55:27.111Z,5.00
2022-08-10T02:56:23.711Z,4.90
2022-08-10T02:57:23.699Z,4.80
2022-08-10T02:58:23.676Z,5.30
2022-08-10T02:59:23.696Z,5.00
2022-08-10T03:00:23.688Z,5.10
2022-08-10T03:01:23.917Z,4.60
2022-08-10T03:02:23.612Z,4.90
2022-08-10T03:03:23.822Z,5.00
2022-08-10T03:04:55.511Z,5.10
2022-08-10T03:05:23.583Z,4.80
2022-08-10T03:06:23.542Z,5.00
2022-08-10T03:07:43.127Z,4.90
2022-08-10T03:08:23.531Z,5.30
2022-08-10T03:09:23.487Z,5.10
2022-08-10T03:10:23.499Z,5.20
2022-08-10T03:12:36.210Z,5.10
2022-08-10T03:12:46.941Z,5.10
2022-08-10T03:13:23.414Z,5.10
2022-08-10T03:14:23.426Z,5.10
2022-08-10T03:15:23.413Z,5.30
2022-08-10T03:16:23.361Z,5.40
2022-08-10T03:17:23.373Z,5.00
2022-08-10T03:18:23.353Z,4.90
2022-08-10T03:20:33.958Z,5.90
2022-08-10T03:20:36.696Z,5.20
2022-08-10T03:21:23.277Z,5.80
2022-08-10T03:22:23.257Z,5.00
2022-08-10T03:23:23.240Z,5.80
2022-08-10T03:24:33.088Z,5.30
2022-08-10T03:25:23.205Z,5.50
2022-08-10T03:26:23.187Z,5.10
2022-08-10T03:27:23.171Z,5.50
2022-08-10T03:28:23.152Z,5.80
2022-08-10T03:29:23.135Z,5.70
2022-08-10T03:30:32.701Z,5.10
2022-08-10T03:31:23.099Z,5.50
2022-08-10T03:32:23.083Z,5.60
2022-08-10T03:33:23.065Z,5.50
2022-08-10T03:34:33.369Z,5.80
2022-08-10T03:35:23.029Z,5.90
2022-08-10T03:36:43.774Z,5.70
2022-08-10T03:37:22.994Z,5.20
2022-08-10T03:38:22.974Z,5.70
2022-08-10T03:39:23.002Z,5.50
2022-08-10T03:40:22.938Z,6.10
2022-08-10T03:41:22.958Z,5.70
2022-08-10T03:42:22.904Z,6.00
2022-08-10T03:43:22.889Z,5.60
2022-08-10T03:44:22.901Z,6.20
2022-08-10T03:46:22.837Z,5.90
2022-08-10T03:47:23.024Z,5.90
2022-08-10T03:48:22.799Z,6.10
2022-08-10T03:49:22.810Z,6.20
2022-08-10T03:50:28.101Z,5.70
2022-08-10T03:51:22.745Z,6.00
2022-08-10T03:52:22.730Z,5.40
2022-08-10T03:53:24.940Z,6.10
2022-08-10T03:54:22.692Z,5.70
2022-08-10T03:56:26.958Z,5.60
2022-08-10T03:56:30.131Z,6.10
2022-08-10T03:57:22.664Z,6.40
2022-08-10T03:58:22.624Z,5.80
2022-08-10T03:59:22.606Z,6.70
2022-08-10T04:00:22.587Z,5.80
2022-08-10T04:02:45.387Z,6.80
2022-08-10T04:03:22.537Z,6.60
2022-08-10T04:04:24.989Z,6.30
2022-08-10T04:05:22.503Z,6.20
2022-08-10T04:06:22.514Z,6.00
2022-08-10T04:07:22.461Z,5.90
2022-08-10T04:08:22.445Z,6.40
2022-08-10T04:09:22.430Z,6.10
2022-08-10T04:10:22.412Z,6.80
2022-08-10T04:11:22.391Z,7.00
2022-08-10T04:12:22.377Z,6.20
2022-08-10T04:13:22.358Z,6.20
2022-08-10T04:14:38.613Z,6.30
2022-08-10T04:15:22.320Z,6.60
2022-08-10T04:16:22.301Z,6.00
2022-08-10T04:17:56.978Z,6.50
2022-08-10T04:18:22.265Z,6.30
2022-08-10T04:19:22.249Z,6.80
2022-08-10T04:20:22.227Z,6.00
2022-08-10T04:21:22.213Z,6.80
2022-08-10T04:22:22.196Z,6.20
2022-08-10T04:23:22.175Z,6.60
2022-08-10T04:24:26.990Z,6.70
2022-08-10T04:25:22.148Z,6.80
2022-08-10T04:26:22.125Z,6.70
2022-08-10T04:27:22.107Z,6.80
2022-08-10T04:28:22.085Z,6.50
2022-08-10T04:29:22.070Z,6.60
2022-08-10T04:30:22.054Z,6.80
2022-08-10T04:31:22.041Z,6.70
2022-08-10T04:32:22.015Z,6.50
2022-08-10T04:33:22.002Z,6.90
2022-08-10T04:34:21.984Z,6.90
2022-08-10T04:35:21.968Z,7.20
2022-08-10T04:36:21.947Z,6.40
2022-08-10T04:37:21.929Z,7.20
2022-08-10T04:38:21.910Z,6.60
2022-08-10T04:39:21.974Z,7.30
2022-08-10T04:40:25.406Z,7.00
2022-08-10T04:41:21.854Z,6.60
2022-08-10T04:42:21.839Z,6.60
2022-08-10T04:43:21.819Z,7.30
2022-08-10T04:44:21.862Z,6.90
2022-08-10T04:45:21.784Z,6.90
2022-08-10T04:46:55.480Z,6.80
2022-08-10T04:47:57.547Z,6.50
2022-08-10T04:48:42.271Z,6.90
2022-08-10T04:49:55.625Z,6.60
2022-08-10T04:50:21.697Z,7.50
2022-08-10T04:51:21.677Z,7.50
2022-08-10T04:52:21.660Z,6.90
2022-08-10T04:53:21.643Z,6.90
2022-08-10T04:54:21.628Z,6.90
2022-08-10T04:55:21.612Z,7.40
2022-08-10T04:56:21.586Z,7.10
2022-08-10T04:57:21.573Z,7.10
2022-08-10T04:58:21.553Z,6.90
2022-08-10T04:59:21.533Z,6.90
2022-08-10T05:00:21.534Z,6.90
2022-08-10T05:01:24.757Z,6.50
2022-08-10T05:02:28.934Z,7.50
2022-08-10T05:03:21.463Z,6.70
2022-08-10T05:04:35.285Z,6.80
2022-08-10T05:05:21.425Z,7.40
2022-08-10T05:06:21.411Z,6.80
2022-08-10T05:07:21.388Z,7.10
2022-08-10T05:08:21.373Z,6.80
2022-08-10T05:09:21.356Z,7.40
2022-08-10T05:10:21.341Z,7.70
2022-08-10T05:11:23.969Z,7.30
2022-08-10T05:12:21.302Z,7.50
2022-08-10T05:13:21.282Z,7.00
2022-08-10T05:14:21.267Z,7.00
2022-08-10T05:15:21.247Z,8.10
2022-08-10T05:16:32.102Z,7.10
2022-08-10T05:17:21.211Z,7.70
2022-08-10T05:18:21.196Z,7.70
2022-08-10T05:20:02.204Z,6.80
2022-08-10T05:20:21.158Z,7.50
2022-08-10T05:22:03.208Z,7.50
2022-08-10T05:22:21.124Z,7.40
2022-08-10T05:23:21.441Z,7.30
2022-08-10T05:24:21.086Z,7.90
2022-08-10T05:25:21.068Z,7.20
2022-08-10T05:26:21.053Z,7.30
2022-08-10T05:27:21.033Z,8.20
2022-08-10T05:28:21.017Z,7.60
2022-08-10T05:29:20.996Z,7.60
2022-08-10T05:30:21.002Z,7.50
2022-08-10T05:31:23.523Z,7.60
2022-08-10T05:32:20.945Z,7.90
2022-08-10T05:33:20.926Z,8.20
2022-08-10T05:34:21.080Z,7.40
2022-08-10T05:35:20.915Z,8.10
2022-08-10T05:36:20.875Z,7.60
2022-08-10T05:38:13.374Z,8.00
2022-08-10T05:38:20.838Z,7.90
2022-08-10T05:39:28.780Z,7.90
2022-08-10T05:40:20.803Z,8.00
2022-08-10T05:41:20.783Z,7.20
2022-08-10T05:42:20.770Z,7.20
2022-08-10T05:43:20.751Z,7.80
2022-08-10T05:44:20.731Z,7.80
2022-08-10T05:45:20.711Z,7.70
2022-08-10T05:46:21.238Z,8.20
2022-08-10T05:47:20.676Z,8.00
2022-08-10T05:48:54.561Z,7.50
2022-08-10T05:49:20.643Z,7.50
2022-08-10T05:50:20.628Z,7.50
2022-08-10T05:51:20.745Z,7.60
2022-08-10T05:52:20.589Z,7.60
2022-08-10T05:53:59.155Z,7.80
2022-08-10T05:54:20.559Z,7.40
2022-08-10T05:55:20.532Z,7.90
2022-08-10T05:56:20.520Z,8.00
2022-08-10T05:57:20.497Z,8.20
2022-08-10T05:58:20.481Z,7.90
2022-08-10T06:00:35.828Z,8.20
2022-08-10T06:00:36.907Z,7.90
2022-08-10T06:01:20.489Z,7.60
2022-08-10T06:02:33.987Z,8.10
2022-08-10T06:03:23.896Z,7.00
2022-08-10T06:04:20.378Z,7.90
2022-08-10T06:05:20.356Z,7.70
2022-08-10T06:06:24.346Z,7.30
2022-08-10T06:07:21.932Z,7.20
2022-08-10T06:08:20.305Z,7.70
2022-08-10T06:09:20.287Z,7.40
2022-08-10T06:10:31.107Z,7.50
2022-08-10T06:12:27.009Z,7.80
2022-08-10T06:12:28.405Z,7.30
2022-08-10T06:13:30.379Z,7.60
2022-08-10T06:14:20.198Z,7.30
2022-08-10T06:15:21.618Z,8.10
2022-08-10T06:16:20.161Z,7.70
2022-08-10T06:17:20.178Z,7.70
2022-08-10T06:18:20.130Z,7.10
2022-08-10T06:19:20.104Z,7.70
2022-08-10T06:20:20.091Z,8.20
2022-08-10T06:21:20.075Z,7.40
2022-08-10T06:22:20.059Z,7.30
2022-08-10T06:23:20.057Z,7.80
2022-08-10T06:24:20.018Z,7.10
2022-08-10T06:26:08.693Z,7.20
2022-08-10T06:26:21.763Z,6.90
2022-08-10T06:27:19.969Z,7.20
2022-08-10T06:28:19.949Z,7.80
2022-08-10T06:29:19.929Z,7.30
2022-08-10T06:30:21.193Z,7.30
2022-08-10T06:31:19.895Z,6.90
2022-08-10T06:32:19.878Z,7.40
2022-08-10T06:33:19.858Z,6.80
2022-08-10T06:34:19.844Z,7.40
2022-08-10T06:35:19.823Z,6.70
2022-08-10T06:36:19.809Z,7.10
2022-08-10T06:37:19.788Z,7.20
2022-08-10T06:38:19.772Z,7.10
2022-08-10T06:39:36.170Z,7.00
2022-08-10T06:40:19.849Z,6.40
2022-08-10T06:41:20.238Z,6.50
2022-08-10T06:42:19.703Z,6.30
2022-08-10T06:43:19.682Z,6.60
2022-08-10T06:44:19.671Z,6.90
2022-08-10T06:45:19.651Z,6.60
2022-08-10T06:46:19.633Z,6.60
2022-08-10T06:47:23.131Z,6.90
2022-08-10T06:48:19.597Z,6.80
2022-08-10T06:49:19.579Z,6.50
2022-08-10T06:50:34.984Z,7.40
2022-08-10T06:51:19.543Z,6.80
2022-08-10T06:52:19.528Z,6.50
2022-08-10T06:53:19.508Z,6.90
2022-08-10T06:54:19.492Z,6.30
2022-08-10T06:55:19.471Z,6.60
2022-08-10T06:56:19.457Z,6.50
2022-08-10T06:57:19.440Z,6.00
2022-08-10T06:58:19.422Z,6.50
2022-08-10T06:59:21.710Z,6.40
2022-08-10T07:00:20.410Z,6.00
2022-08-10T07:01:19.446Z,5.60
2022-08-10T07:02:19.356Z,5.50
2022-08-10T07:03:19.335Z,5.80
2022-08-10T07:04:19.318Z,6.00
2022-08-10T07:05:19.301Z,5.60
2022-08-10T07:06:19.283Z,5.40
2022-08-10T07:07:19.291Z,5.90
2022-08-10T07:08:19.250Z,5.80
2022-08-10T07:09:19.277Z,6.20
2022-08-10T07:10:19.214Z,5.50
2022-08-10T07:11:19.195Z,5.20
2022-08-10T07:12:19.181Z,5.70
2022-08-10T07:14:16.602Z,5.60
2022-08-10T07:14:19.151Z,5.00
2022-08-10T07:15:19.130Z,5.50
2022-08-10T07:16:19.114Z,4.80
2022-08-10T07:17:19.093Z,5.40
2022-08-10T07:18:19.086Z,5.30
2022-08-10T07:19:19.060Z,5.10
2022-08-10T07:20:19.049Z,5.20
2022-08-10T07:21:19.023Z,5.20
2022-08-10T07:23:23.405Z,4.90
2022-08-10T07:23:55.982Z,5.70
2022-08-10T07:24:18.976Z,5.30
2022-08-10T07:25:18.956Z,5.10
2022-08-10T07:26:18.942Z,5.00
2022-08-10T07:27:18.935Z,5.70
2022-08-10T07:28:18.913Z,5.20
2022-08-10T07:29:53.852Z,4.80
2022-08-10T07:30:18.925Z,4.60
2022-08-10T07:31:54.328Z,4.80
2022-08-10T07:32:18.916Z,4.70
2022-08-10T07:33:18.849Z,4.60
2022-08-10T07:34:22.584Z,4.80
2022-08-10T07:35:18.786Z,4.40
2022-08-10T07:36:18.773Z,4.60
2022-08-10T07:37:18.792Z,4.20
2022-08-10T07:38:18.747Z,4.30
2022-08-10T07:40:01.917Z,4.70
2022-08-10T07:40:19.071Z,4.60
2022-08-10T07:41:18.715Z,4.60
2022-08-10T07:42:18.670Z,4.50
2022-08-10T07:43:18.662Z,4.60
2022-08-10T07:44:18.761Z,4.00
2022-08-10T07:45:18.619Z,4.00
2022-08-10T07:46:18.603Z,4.50
2022-08-10T07:47:18.589Z,3.70
2022-08-10T07:48:18.573Z,3.70
2022-08-10T07:49:19.703Z,3.80
2022-08-10T07:50:18.535Z,4.00
2022-08-10T07:51:18.540Z,3.60
2022-08-10T07:52:18.511Z,4.10
2022-08-10T07:53:18.501Z,4.20
2022-08-10T07:54:18.481Z,3.70
2022-08-10T07:55:18.470Z,3.70
2022-08-10T07:56:45.364Z,3.70
2022-08-10T07:57:24.057Z,4.00
2022-08-10T07:58:18.415Z,3.20
2022-08-10T07:59:18.389Z,3.00
2022-08-10T08:00:18.402Z,3.00
2022-08-10T08:01:18.875Z,2.90
2022-08-10T08:02:18.355Z,3.00
2022-08-10T08:03:18.320Z,3.00
2022-08-10T08:04:18.316Z,2.60
2022-08-10T08:05:55.058Z,2.70
2022-08-10T08:06:18.277Z,3.30
2022-08-10T08:07:21.256Z,3.20
2022-08-10T08:08:18.273Z,2.60
2022-08-10T08:09:18.215Z,2.90
2022-08-10T08:10:18.256Z,2.70
2022-08-10T08:11:26.216Z,2.80
2022-08-10T08:12:18.213Z,3.20
2022-08-10T08:13:18.215Z,2.90
2022-08-10T08:14:18.169Z,2.70
2022-08-10T08:16:20.403Z,3.50
2022-08-10T08:16:21.933Z,2.60
2022-08-10T08:17:18.122Z,3.10
2022-08-10T08:18:22.994Z,2.70
2022-08-10T08:19:37.289Z,2.60
2022-08-10T08:20:18.108Z,2.80
2022-08-10T08:24:02.534Z,3.00
2022-08-10T08:24:08.090Z,2.70
2022-08-10T08:24:11.225Z,2.70
2022-08-10T08:24:33.646Z,2.80
2022-08-10T08:25:17.959Z,2.90
2022-08-10T08:26:17.951Z,2.70
2022-08-10T08:27:17.966Z,2.80
2022-08-10T08:28:17.918Z,2.90
2022-08-10T08:29:17.889Z,2.50
2022-08-10T08:30:26.982Z,2.90
2022-08-10T08:31:17.873Z,2.80
2022-08-10T08:32:17.840Z,2.90
2022-08-10T08:33:19.882Z,2.40
2022-08-10T08:34:17.817Z,2.90
2022-08-10T08:35:17.792Z,2.50
2022-08-10T08:36:17.774Z,2.60
2022-08-10T08:38:27.268Z,2.70
2022-08-10T08:38:31.200Z,2.70
2022-08-10T08:39:17.772Z,2.80
2022-08-10T08:40:17.708Z,2.70
2022-08-10T08:41:17.694Z,2.60
2022-08-10T08:42:17.698Z,3.00
2022-08-10T08:43:17.996Z,2.50
2022-08-10T08:44:17.669Z,2.80
2022-08-10T08:45:17.666Z,3.30
2022-08-10T08:46:17.656Z,2.70
2022-08-10T08:48:04.719Z,2.80
2022-08-10T08:48:17.673Z,2.70
2022-08-10T08:49:41.445Z,2.60
2022-08-10T08:50:17.568Z,2.60
2022-08-10T08:52:09.998Z,2.70
2022-08-10T08:52:18.805Z,2.50
2022-08-10T08:53:22.241Z,2.70
2022-08-10T08:54:17.505Z,2.60
2022-08-10T08:56:03.468Z,2.60
2022-08-10T08:56:17.451Z,2.80
2022-08-10T08:57:46.294Z,2.40
2022-08-10T08:58:17.417Z,2.40
2022-08-10T08:59:17.403Z,2.70
2022-08-10T09:00:17.495Z,2.60
2022-08-10T09:01:17.430Z,2.50
2022-08-10T09:02:17.430Z,2.50
2022-08-10T09:03:17.352Z,2.70
2022-08-10T09:04:21.252Z,2.60
2022-08-10T09:05:17.388Z,2.50
2022-08-10T09:06:17.412Z,2.50
2022-08-10T09:07:59.652Z,2.80
2022-08-10T09:08:17.295Z,2.70
2022-08-10T09:09:17.306Z,2.50
2022-08-10T09:10:17.313Z,2.50
2022-08-10T09:11:17.250Z,2.60
2022-08-10T09:12:17.253Z,2.60
2022-08-10T09:13:17.255Z,2.40
2022-08-10T09:14:17.226Z,2.60
2022-08-10T09:15:39.441Z,2.70
2022-08-10T09:16:17.154Z,2.70
2022-08-10T09:17:17.141Z,2.50
2022-08-10T09:18:17.111Z,2.70
2022-08-10T09:19:19.655Z,2.60
2022-08-10T09:20:17.125Z,2.40
2022-08-10T09:21:17.111Z,2.60
2022-08-10T09:22:19.119Z,2.60
2022-08-10T09:23:17.067Z,2.40
2022-08-10T09:24:20.300Z,2.30
2022-08-10T09:25:17.029Z,2.60
2022-08-10T09:26:17.020Z,2.60
2022-08-10T09:27:16.959Z,2.40
2022-08-10T09:28:16.947Z,2.60
2022-08-10T09:29:16.982Z,2.80
2022-08-10T09:30:16.998Z,2.50
2022-08-10T09:31:22.363Z,2.60
2022-08-10T09:36:13.816Z,2.50
2022-08-10T09:36:21.932Z,2.60
2022-08-10T09:36:24.248Z,2.40
2022-08-10T09:36:29.705Z,2.50
2022-08-10T09:36:33.276Z,2.20
2022-08-10T09:37:16.856Z,2.50
2022-08-10T09:38:16.837Z,2.30
2022-08-10T09:40:05.861Z,2.50
2022-08-10T09:41:00.229Z,2.30
2022-08-10T09:41:16.818Z,2.00
2022-08-10T09:42:16.725Z,2.20
2022-08-10T09:43:25.938Z,2.30
2022-08-10T09:44:16.699Z,2.20
2022-08-10T09:45:16.698Z,2.40
2022-08-10T09:46:16.740Z,2.30
2022-08-10T09:47:16.669Z,2.30
2022-08-10T09:48:16.645Z,2.10
2022-08-10T09:49:17.468Z,2.30
2022-08-10T09:50:16.600Z,2.40
2022-08-10T09:51:42.099Z,2.20
2022-08-10T09:52:16.572Z,2.10
2022-08-10T09:53:16.580Z,2.40
2022-08-10T09:54:16.562Z,2.30
2022-08-10T09:55:16.537Z,2.30
2022-08-10T09:56:21.438Z,2.30
2022-08-10T09:57:41.469Z,2.60
2022-08-10T09:58:16.498Z,2.20
2022-08-10T09:59:29.372Z,2.20
2022-08-10T10:00:16.540Z,2.10
2022-08-10T10:01:57.802Z,2.40
2022-08-10T10:02:16.451Z,2.50
2022-08-10T10:03:17.219Z,2.50
2022-08-10T10:04:16.451Z,2.30
2022-08-10T10:05:16.391Z,2.10
2022-08-10T10:06:16.392Z,2.40
2022-08-10T10:07:16.369Z,2.00
2022-08-10T10:08:16.350Z,2.20
2022-08-10T10:09:16.319Z,2.00
2022-08-10T10:10:16.329Z,2.20
2022-08-10T10:11:16.292Z,2.10
2022-08-10T10:12:16.275Z,2.00
2022-08-10T10:13:16.292Z,2.10
2022-08-10T10:14:16.252Z,2.50
2022-08-10T10:15:24.056Z,2.50
2022-08-10T10:16:16.214Z,2.10
2022-08-10T10:17:16.206Z,2.00
2022-08-10T10:18:16.201Z,1.90
2022-08-10T10:19:16.189Z,2.10
2022-08-10T10:20:16.161Z,2.30
2022-08-10T10:21:24.118Z,2.00
2022-08-10T10:22:16.134Z,2.00
2022-08-10T10:23:16.127Z,2.00
2022-08-10T10:24:20.336Z,2.10
2022-08-10T10:25:20.924Z,1.80
2022-08-10T10:26:18.689Z,1.90
2022-08-10T10:27:16.848Z,1.70
2022-08-10T10:28:16.102Z,1.90
2022-08-10T10:29:44.692Z,1.90
2022-08-10T10:30:16.068Z,2.00
2022-08-10T10:31:16.647Z,2.00
2022-08-10T10:32:16.110Z,1.90
2022-08-10T10:33:16.062Z,2.10
2022-08-10T10:34:16.022Z,1.90
2022-08-10T10:35:16.023Z,2.00
2022-08-10T10:36:15.991Z,1.90
2022-08-10T10:37:15.957Z,2.00
2022-08-10T10:38:15.923Z,1.90
2022-08-10T10:39:18.443Z,2.10
2022-08-10T10:40:15.888Z,2.10
2022-08-10T10:41:15.868Z,1.90
2022-08-10T10:42:28.963Z,1.90
2022-08-10T10:43:15.851Z,1.90
2022-08-10T10:44:15.842Z,1.80
2022-08-10T10:45:15.814Z,1.90
2022-08-10T10:46:15.873Z,1.70
2022-08-10T10:47:15.851Z,1.80
2022-08-10T10:48:23.729Z,1.80
2022-08-10T10:49:15.775Z,1.80
2022-08-10T10:50:15.748Z,2.00
2022-08-10T10:51:15.744Z,2.00
2022-08-10T10:52:15.741Z,1.80
2022-08-10T10:53:15.712Z,1.70
2022-08-10T10:54:15.718Z,1.90
2022-08-10T10:55:15.689Z,1.70
2022-08-10T10:56:16.405Z,1.70
2022-08-10T10:57:15.664Z,1.90
2022-08-10T10:58:20.092Z,1.80
2022-08-10T10:59:53.674Z,1.90
2022-08-10T11:00:15.631Z,1.90
2022-08-10T11:01:15.699Z,1.90
2022-08-10T11:02:15.591Z,1.90
2022-08-10T11:03:15.590Z,1.90
2022-08-10T11:04:15.564Z,1.90
2022-08-10T11:05:15.576Z,2.00
2022-08-10T11:06:15.550Z,2.30
2022-08-10T11:07:15.544Z,2.20
2022-08-10T11:08:15.542Z,1.80
2022-08-10T11:10:04.618Z,1.80
2022-08-10T11:10:32.609Z,1.80
2022-08-10T11:11:59.609Z,1.70
2022-08-10T11:12:15.481Z,2.10
2022-08-10T11:14:23.029Z,1.90
2022-08-10T11:14:27.100Z,1.80
2022-08-10T11:15:15.424Z,1.70
2022-08-10T11:16:15.411Z,1.80
2022-08-10T11:17:15.400Z,1.90
2022-08-10T11:18:15.384Z,1.80
2022-08-10T11:19:15.374Z,1.80
2022-08-10T11:20:15.359Z,2.20
2022-08-10T11:21:15.349Z,1.80
2022-08-10T11:22:16.537Z,1.70
2022-08-10T11:23:15.322Z,1.80
2022-08-10T11:24:47.979Z,2.00
2022-08-10T11:25:15.297Z,1.90
2022-08-10T11:26:15.283Z,1.90
2022-08-10T11:27:22.034Z,1.90
2022-08-10T11:28:15.265Z,1.90
2022-08-10T11:29:15.252Z,1.90
2022-08-10T11:30:15.248Z,1.80
2022-08-10T11:31:15.226Z,1.80
2022-08-10T11:32:21.102Z,2.00
2022-08-10T11:33:15.196Z,1.80
2022-08-10T11:34:48.870Z,1.80
2022-08-10T11:35:15.201Z,1.90
2022-08-10T11:36:15.156Z,1.80
2022-08-10T11:37:15.151Z,1.80
2022-08-10T11:38:32.957Z,2.00
2022-08-10T11:39:15.160Z,1.80
2022-08-10T11:40:15.103Z,1.70
2022-08-10T11:42:12.233Z,1.80
2022-08-10T11:42:26.473Z,1.90
2022-08-10T11:43:15.113Z,1.90
2022-08-10T11:44:15.118Z,1.90
2022-08-10T11:45:15.111Z,1.90
2022-08-10T11:46:27.599Z,2.10
2022-08-10T11:47:15.081Z,1.80
2022-08-10T11:48:53.415Z,1.90
2022-08-10T11:49:15.032Z,2.00
2022-08-10T11:50:14.991Z,1.80
2022-08-10T11:51:14.963Z,2.10
2022-08-10T11:52:14.967Z,1.90
2022-08-10T11:53:14.933Z,1.80
2022-08-10T11:54:14.926Z,2.10
2022-08-10T11:55:15.663Z,1.90
2022-08-10T11:56:14.899Z,1.70
2022-08-10T11:57:16.792Z,2.10
2022-08-10T11:58:14.864Z,1.90
2022-08-10T11:59:17.120Z,1.90
2022-08-10T12:00:14.837Z,2.20
2022-08-10T12:01:14.824Z,2.20
2022-08-10T12:02:14.900Z,2.00
2022-08-10T12:03:14.799Z,1.80
2022-08-10T12:04:14.787Z,2.00
2022-08-10T12:05:14.772Z,2.10
2022-08-10T12:06:14.758Z,2.20
2022-08-10T12:09:24.104Z,1.70
2022-08-10T12:10:04.795Z,1.90
2022-08-10T12:10:09.686Z,2.10
2022-08-10T12:10:14.713Z,2.10
2022-08-10T12:11:24.089Z,2.20
2022-08-10T12:12:14.675Z,2.10
2022-08-10T12:13:14.665Z,1.90
2022-08-10T12:14:23.037Z,2.00
2022-08-10T12:15:14.636Z,1.90
2022-08-10T12:16:14.624Z,2.30
2022-08-10T12:17:14.617Z,1.90
2022-08-10T12:18:14.666Z,1.90
2022-08-10T12:19:14.583Z,2.00
2022-08-10T12:20:14.572Z,1.70
2022-08-10T12:21:21.035Z,2.00
2022-08-10T12:22:14.544Z,1.90
2022-08-10T12:23:14.528Z,1.80
2022-08-10T12:24:14.517Z,2.00
2022-08-10T12:25:18.131Z,2.00
2022-08-10T12:26:14.490Z,1.90
2022-08-10T12:27:14.480Z,1.90
2022-08-10T12:28:14.462Z,1.80
2022-08-10T12:29:14.450Z,1.80
2022-08-10T12:30:14.510Z,1.70
2022-08-10T12:31:14.431Z,1.90
2022-08-10T12:32:14.411Z,1.90
2022-08-10T12:33:14.398Z,1.70
2022-08-10T12:34:14.385Z,1.70
2022-08-10T12:35:17.223Z,1.90
2022-08-10T12:36:18.391Z,1.80
2022-08-10T12:37:14.345Z,1.90
2022-08-10T12:38:14.344Z,1.80
2022-08-10T12:39:14.422Z,1.90
2022-08-10T12:41:14.337Z,1.80
2022-08-10T12:42:37.138Z,1.90
2022-08-10T12:44:07.218Z,1.50
2022-08-10T12:44:14.259Z,1.60
2022-08-10T12:45:14.235Z,1.60
2022-08-10T12:46:14.220Z,1.70
2022-08-10T12:47:14.715Z,1.60
2022-08-10T12:48:14.197Z,1.80
2022-08-10T12:49:14.196Z,1.80
2022-08-10T12:50:32.895Z,1.70
2022-08-10T12:51:14.158Z,1.80
2022-08-10T12:52:14.145Z,1.70
2022-08-10T12:53:14.131Z,2.30
2022-08-10T12:54:14.121Z,1.90
2022-08-10T12:55:14.148Z,1.60
2022-08-10T12:56:14.152Z,1.70
2022-08-10T12:57:14.159Z,1.50
2022-08-10T12:58:59.134Z,1.70
2022-08-10T12:59:14.123Z,1.80
2022-08-10T13:00:17.548Z,1.80
2022-08-10T13:01:17.003Z,1.90
2022-08-10T13:02:14.079Z,2.00
2022-08-10T13:03:14.031Z,1.90
2022-08-10T13:04:22.461Z,1.70
2022-08-10T13:05:14.005Z,1.80
2022-08-10T13:06:13.979Z,1.70
2022-08-10T13:08:24.747Z,1.60
2022-08-10T13:08:27.648Z,1.50
2022-08-10T13:09:13.956Z,1.80
2022-08-10T13:10:13.926Z,1.70
2022-08-10T13:11:26.275Z,1.90
2022-08-10T13:12:36.969Z,1.90
2022-08-10T13:13:13.887Z,1.80
2022-08-10T13:14:13.900Z,1.70
2022-08-10T13:15:45.225Z,1.90
2022-08-10T13:16:13.823Z,1.80
2022-08-10T13:17:13.827Z,1.80
2022-08-10T13:18:18.678Z,1.70
2022-08-10T13:19:13.828Z,1.90
2022-08-10T13:20:14.188Z,2.00
2022-08-10T13:21:19.966Z,1.70
2022-08-10T13:22:13.781Z,1.90